New Harbor, ME (Heathkit)

43° 52' 34"N, 69° 29' 40"W, Elevation 65 ft.
Eastern Time

Hourly observations for the last 72 hours

Date Time Temperature (°F) Humi-
dity

(%)
Wind
(mph)
Pressure Rain (in)
Air Dew 6 Hour 1 Hr 3 Hr 6 Hr Day
Alt
(in)
Sea
Level

(mb)
Max Min
25 13:00 42 18 38 SSE 2 G 12 29.96 1014.6 0.00
25 12:00 39 17 40 SSW 6 G 15 29.98 1015.3 0.00
25 11:00 36 15 42 SSW 8 G 18 29.98 1015.3 0.00
25 10:00 34 12 39 SSW 9 G 17 29.98 1015.3 0.00
25 09:00 32 13 45 SSW 9 G 22 29.98 1015.3 0.00
25 08:00 32 17 37 28 53 S 8 G 23 29.97 1014.9 0.00
25 07:00 33 23 66 S 4 G 15 29.94 1013.9 0.00
25 06:00 35 24 64 S 5 G 18 29.92 1013.2 0.00
25 05:00 36 29 74 S 7 G 12 29.89 1012.2 0.00
25 04:00 33 28 82 S 2 G 5 29.86 1011.2 0.00
25 03:00 30 26 86 SW 2 G 4 29.86 1011.2 0.00
25 02:00 31 27 39 30 84 WSW 2 G 4 29.84 1010.5 0.00
25 01:00 31 26 83 SSW 1 G 2 29.83 1010.2 0.00
25 00:00 33 28 81 SSW 3 G 4 29.83 1010.2 0.00
24 23:00 33 29 84 WSW 2 G 3 29.82 1009.9 0.00
24 22:00 35 31 84 SSE 2 G 2 29.82 1009.9 0.00
24 21:00 38 32 80 WSW 2 G 6 29.82 1009.9 0.00
24 20:00 39 33 53 36 80 SW 2 G 5 29.82 1009.9 0.00
24 19:00 41 34 75 SW 3 G 5 29.80 1009.2 0.00
24 18:00 44 34 67 SW 3 G 8 29.80 1009.2 0.00
24 17:00 47 31 54 SSW 4 G 10 29.79 1008.8 0.00
24 16:00 52 32 46 S 5 G 15 29.79 1008.8 0.00
24 15:00 49 32 52 SW 4 G 9 29.79 1008.8 0.00
24 14:00 49 30 50 29 48 SSW 3 G 14 29.81 1009.5 0.00
24 13:00 46 30 53 S 6 G 15 29.84 1010.5 0.00
24 12:00 46 28 50 S 10 G 15 29.85 1010.9 0.00
24 11:00 44 24 45 SW 7 G 14 29.87 1011.5 0.00
24 10:00 39 23 53 SSW 5 G 10 29.89 1012.2 0.00
24 09:00 37 22 55 SSW 5 G 9 29.89 1012.2 0.00
24 08:00 34 22 34 26 62 SW 5 G 10 29.89 1012.2 0.00
24 07:00 31 20 62 SW 2 G 7 29.88 1011.9 0.00
24 06:00 32 16 52 SSW 4 G 13 29.87 1011.5 0.00
24 05:00 31 16 54 S 5 G 11 29.84 1010.5 0.00
24 04:00 30 16 56 SW 4 G 12 29.83 1010.2 0.00
24 03:00 30 18 60 SW 3 G 10 29.83 1010.2 0.00
24 02:00 31 17 35 26 56 SW 6 G 12 29.82 1009.9 0.00
24 01:00 31 18 57 SSW 7 G 28 29.78 1008.5 0.00
24 00:00 31 18 58 SW 6 G 20 29.76 1007.8 0.11
23 23:00 31 20 62 SSW 6 G 14 29.75 1007.5 0.11
23 22:00 33 19 56 SSW 7 G 26 29.71 1006.1 0.11
23 21:00 34 21 58 S 8 G 23 29.68 1005.1 0.11
23 20:00 35 23 45 32 62 SSW 11 G 25 29.63 1003.4 0.11
23 19:00 35 25 66 SSW 11 G 33 29.59 1002.1 0.11
23 18:00 38 27 65 SSW 12 G 33 29.53 1000.0 0.11
23 17:00 40 28 62 SSW 11 G 25 29.48 998.3 0.11
23 16:00 43 30 60 S 9 G 27 29.42 996.3 0.11
23 15:00 44 31 61 SW 14 G 31 29.37 994.6 0.11
23 14:00 45 33 46 34 62 SSW 9 G 25 29.34 993.6 0.11
23 13:00 45 32 61 SW 11 G 28 29.31 992.6 0.11
23 12:00 44 32 62 SSW 13 G 31 29.27 991.2 0.11
23 11:00 41 33 72 SW 9 G 24 29.24 990.2 0.11
23 10:00 41 34 75 S 11 G 24 29.19 988.5 0.11
23 09:00 38 34 86 SSW 6 G 26 29.16 987.5 0.11
23 08:00 36 34 36 32 91 S 5 G 15 29.13 986.5 0.02 0.09 0.11 0.11
23 07:00 35 34 95 SSW 4 G 13 29.08 984.8 0.02 0.09
23 06:00 35 34 95 SW 4 G 8 29.04 983.4 0.05 0.07
23 05:00 34 33 97 SSW 5 G 14 29.01 982.4 0.02 0.02
23 04:00 35 34 96 SSW 7 G 15 28.97 981.1 0.02 0.02
23 03:00 35 34 95 SW 5 G 12 28.95 980.4 0.00
23 02:00 36 35 38 30 95 SW 4 G 12 28.94 980.1 0.02 0.00
23 01:00 36 35 96 SW 3 G 10 28.93 979.7 0.00
23 00:00 36 35 96 SW 4 G 14 28.92 979.4 0.62
22 23:00 36 35 96 SSW 4 G 10 28.91 979.0 0.01 0.02 0.62
22 22:00 36 35 96 SW 5 G 12 28.90 978.7 0.01 0.61
22 21:00 37 36 96 SSW 10 G 18 28.87 977.7 0.60
22 20:00 38 37 41 35 96 SSW 6 G 13 28.85 977.0 0.01 0.01 0.03 0.60
22 19:00 39 38 96 S 7 G 15 28.81 975.7 0.59
22 18:00 40 39 96 S 5 G 16 28.80 975.3 0.59
22 17:00 41 40 96 SSE 5 G 12 28.80 975.3 0.02 0.59
22 16:00 41 40 96 ESE 7 G 16 28.83 976.3 0.01 0.58
22 15:00 41 40 96 SE 8 G 15 28.88 978.0 0.01 0.58
22 14:00 39 38 39 31 96 ESE 8 G 23 28.93 979.7 0.11 0.46 0.57

Data generated by WxSolution Version 1.9.1.5, Build 2018.05.20.